Time;durP1;ratioP1;P1;durP2;ratioP2;P2;SDS_P1;SDS_P2;PMS_P1;PMS_P2;Temp;Humidity;BMP_temperature;BMP_pressure;BME280_temperature;BME280_humidity;BME280_pressure;Samples;Min_cycle;Max_cycle;Signal;HPM_P1;HPM_P2
2021/11/21 00:00:54;;;;;;;9.20;5.90;;;-1.70;98.20;;;;;;2088977;28;20187;-60
2021/11/21 00:01:55;;;;;;;7.30;5.43;;;-1.70;98.10;;;;;;2088958;28;20263;-62
2021/11/21 00:02:58;;;;;;;7.50;5.50;;;-1.70;98.10;;;;;;2088991;28;20190;-58
2021/11/21 00:03:59;;;;;;;10.50;5.22;;;-1.70;98.20;;;;;;2088153;28;20194;-61
2021/11/21 00:04:59;;;;;;;7.37;5.73;;;-1.70;98.10;;;;;;2088380;28;20245;-64
2021/11/21 00:06:00;;;;;;;8.60;5.87;;;-1.70;98.00;;;;;;2088870;28;20214;-60
2021/11/21 00:07:01;;;;;;;9.23;5.13;;;-1.70;97.90;;;;;;2088955;28;20533;-63
2021/11/21 00:08:02;;;;;;;9.40;5.72;;;-1.70;98.00;;;;;;2088738;28;20178;-59
2021/11/21 00:09:02;;;;;;;9.17;5.53;;;-1.70;98.00;;;;;;2089002;28;20183;-60
2021/11/21 00:10:04;;;;;;;7.83;5.50;;;-1.70;98.10;;;;;;2088877;28;20249;-57
2021/11/21 00:11:04;;;;;;;7.80;5.13;;;-1.70;98.20;;;;;;2088714;28;20187;-60
2021/11/21 00:12:05;;;;;;;8.67;4.80;;;-1.70;98.10;;;;;;2088769;28;20186;-57
2021/11/21 00:13:07;;;;;;;9.18;5.05;;;-1.70;98.00;;;;;;2088936;28;20252;-60
2021/11/21 00:14:09;;;;;;;9.05;5.22;;;-1.70;98.00;;;;;;2088777;28;20203;-58
2021/11/21 00:15:10;;;;;;;6.45;4.82;;;-1.70;98.00;;;;;;2088790;28;20545;-60
2021/11/21 00:16:10;;;;;;;7.97;5.30;;;-1.70;98.60;;;;;;2087896;28;20244;-60
2021/11/21 00:17:11;;;;;;;7.80;4.90;;;-1.70;98.20;;;;;;2087994;28;20182;-58
2021/11/21 00:18:12;;;;;;;7.80;4.63;;;-1.70;98.20;;;;;;2086824;28;20187;-59
2021/11/21 00:19:13;;;;;;;5.30;4.07;;;-1.70;98.20;;;;;;2089036;28;20266;-61
2021/11/21 00:20:16;;;;;;;5.27;4.17;;;-1.70;98.20;;;;;;2088473;28;20194;-59
2021/11/21 00:21:17;;;;;;;6.22;4.55;;;-1.70;98.40;;;;;;2088449;28;20214;-59
2021/11/21 00:22:18;;;;;;;7.23;4.10;;;-1.80;98.40;;;;;;2088884;28;20193;-60
2021/11/21 00:23:22;;;;;;;5.77;4.30;;;-1.80;98.40;;;;;;2089027;28;20191;-59
2021/11/21 00:24:23;;;;;;;4.78;3.78;;;-1.80;98.40;;;;;;2088556;28;20225;-60
2021/11/21 00:25:24;;;;;;;5.43;4.27;;;-1.80;98.40;;;;;;2088930;28;20202;-59
2021/11/21 00:26:26;;;;;;;6.90;4.15;;;-1.80;98.50;;;;;;2088673;28;20203;-61
2021/11/21 00:27:26;;;;;;;8.63;4.40;;;-1.80;98.60;;;;;;2088744;28;20187;-61
2021/11/21 00:28:27;;;;;;;6.73;4.23;;;-1.80;98.60;;;;;;2088430;28;20187;-61
2021/11/21 00:29:28;;;;;;;7.37;4.87;;;-1.70;98.60;;;;;;2088631;28;20669;-60
2021/11/21 00:30:29;;;;;;;5.97;4.03;;;-1.80;98.70;;;;;;2088492;28;20187;-60
2021/11/21 00:31:29;;;;;;;5.57;4.40;;;-1.80;98.70;;;;;;2088917;28;20262;-59
2021/11/21 00:32:30;;;;;;;6.00;4.87;;;-1.80;98.70;;;;;;2088562;28;20389;-59
2021/11/21 00:33:32;;;;;;;6.78;4.80;;;-1.80;98.60;;;;;;2088502;28;20184;-60
2021/11/21 00:34:33;;;;;;;11.40;4.43;;;-1.80;98.50;;;;;;2088891;28;20592;-60
2021/11/21 00:35:34;;;;;;;6.95;4.47;;;-1.80;98.50;;;;;;2088747;28;20258;-59
2021/11/21 00:36:35;;;;;;;6.90;4.82;;;-1.80;98.50;;;;;;2088750;28;20325;-60
2021/11/21 00:37:36;;;;;;;6.17;4.53;;;-1.80;98.50;;;;;;2088403;28;20195;-59
2021/11/21 00:38:38;;;;;;;7.00;4.40;;;-1.80;98.40;;;;;;2088735;28;20244;-59
2021/11/21 00:39:38;;;;;;;6.15;4.80;;;-1.80;98.50;;;;;;2088716;28;20609;-61
2021/11/21 00:40:39;;;;;;;5.47;4.50;;;-1.80;98.60;;;;;;2088388;28;20198;-61
2021/11/21 00:41:41;;;;;;;5.70;4.22;;;-1.80;98.60;;;;;;2088554;28;20265;-58
2021/11/21 00:42:42;;;;;;;7.00;4.65;;;-1.80;99.00;;;;;;2088857;28;20195;-58
2021/11/21 00:43:43;;;;;;;8.73;5.68;;;-1.80;99.00;;;;;;2089935;28;20179;-62
2021/11/21 00:44:44;;;;;;;7.15;4.82;;;-1.80;99.40;;;;;;2090523;28;20187;-59
2021/11/21 00:45:45;;;;;;;9.27;5.60;;;-1.80;99.00;;;;;;2090337;28;20207;-60
2021/11/21 00:46:46;;;;;;;7.83;5.00;;;-1.80;99.10;;;;;;2090448;28;20205;-60
2021/11/21 00:47:46;;;;;;;7.83;5.70;;;-1.80;99.10;;;;;;2090148;28;20247;-59
2021/11/21 00:48:48;;;;;;;7.13;4.73;;;-1.80;99.10;;;;;;2090229;28;20679;-59
2021/11/21 00:49:49;;;;;;;8.35;4.90;;;-1.80;99.00;;;;;;2090080;28;20659;-59
2021/11/21 00:50:56;;;;;;;9.37;5.20;;;-1.80;99.00;;;;;;2090252;28;20199;-59
2021/11/21 00:51:57;;;;;;;9.20;5.68;;;-1.80;98.90;;;;;;2090173;28;20456;-61
2021/11/21 00:53:03;;;;;;;8.43;5.30;;;-1.70;99.10;;;;;;2090528;28;20255;-61
2021/11/21 00:54:22;;;;;;;9.93;5.70;;;-1.70;99.20;;;;;;2090377;28;20169;-60
2021/11/21 00:55:33;;;;;;;8.27;5.43;;;-1.70;99.70;;;;;;2090324;28;20563;-57
2021/11/21 00:56:33;;;;;;;8.65;5.55;;;-1.70;99.10;;;;;;2090443;28;20182;-59
2021/11/21 00:57:34;;;;;;;8.97;5.87;;;-1.70;99.00;;;;;;2090100;28;20184;-63
2021/11/21 00:58:36;;;;;;;11.03;6.27;;;-1.80;99.00;;;;;;2089806;28;20608;-63
2021/11/21 00:59:37;;;;;;;11.13;6.97;;;-1.80;99.00;;;;;;2090034;28;20182;-62
2021/11/21 01:00:42;;;;;;;12.90;7.03;;;-1.80;98.90;;;;;;2090266;28;20273;-62
2021/11/21 01:01:43;;;;;;;13.25;7.40;;;-1.80;98.90;;;;;;2089517;28;20199;-63
2021/11/21 01:02:44;;;;;;;17.10;8.40;;;-1.80;98.90;;;;;;2089904;28;20703;-62
2021/11/21 01:03:45;;;;;;;15.88;8.38;;;-1.70;99.00;;;;;;2090750;28;20556;-63
2021/11/21 01:04:46;;;;;;;15.53;8.13;;;-1.70;99.00;;;;;;2090846;28;20198;-60
2021/11/21 01:05:49;;;;;;;14.43;7.53;;;-1.70;98.80;;;;;;2090366;28;20216;-63
2021/11/21 01:06:50;;;;;;;11.75;6.60;;;-1.70;98.80;;;;;;2090602;28;20576;-63
2021/11/21 01:07:51;;;;;;;16.37;9.10;;;-1.70;98.80;;;;;;2090806;28;20212;-63
2021/11/21 01:08:52;;;;;;;17.60;8.43;;;-1.70;98.80;;;;;;2090784;28;20190;-62
2021/11/21 01:09:52;;;;;;;13.77;7.53;;;-1.70;98.90;;;;;;2090766;28;20187;-62
2021/11/21 01:11:00;;;;;;;16.73;8.47;;;-1.70;99.00;;;;;;2090447;28;20184;-62
2021/11/21 01:12:02;;;;;;;19.50;10.30;;;-1.70;99.00;;;;;;2090789;28;20176;-62
2021/11/21 01:13:04;;;;;;;22.17;11.82;;;-1.70;99.00;;;;;;2090694;28;20186;-62
2021/11/21 01:14:06;;;;;;;17.40;9.57;;;-1.80;98.90;;;;;;2089564;28;20184;-62
2021/11/21 01:15:12;;;;;;;19.98;9.07;;;-1.80;98.80;;;;;;2084134;28;20649;-63
2021/11/21 01:16:14;;;;;;;17.98;8.65;;;-1.80;98.70;;;;;;2082530;28;20181;-62
2021/11/21 01:17:14;;;;;;;20.48;8.85;;;-1.80;98.60;;;;;;2082323;28;20188;-62
2021/11/21 01:18:16;;;;;;;17.83;9.83;;;-1.80;98.80;;;;;;2082489;28;20202;-62
2021/11/21 01:19:17;;;;;;;20.25;10.20;;;-1.80;98.80;;;;;;2082631;28;20216;-63
2021/11/21 01:20:19;;;;;;;19.53;10.07;;;-1.80;98.70;;;;;;2081791;28;20484;-63
2021/11/21 01:21:20;;;;;;;20.67;10.75;;;-1.80;98.70;;;;;;2081528;28;20289;-63
2021/11/21 01:22:20;;;;;;;19.70;9.60;;;-1.80;98.70;;;;;;2082331;28;20258;-63
2021/11/21 01:23:22;;;;;;;18.50;10.07;;;-1.80;98.90;;;;;;2082328;28;20184;-63
2021/11/21 01:24:22;;;;;;;19.27;10.70;;;-1.80;98.90;;;;;;2082443;28;20189;-63
2021/11/21 01:25:24;;;;;;;17.93;9.63;;;-1.80;98.70;;;;;;2082366;28;20650;-63
2021/11/21 01:26:25;;;;;;;14.93;7.43;;;-1.80;98.80;;;;;;2082429;28;20231;-63
2021/11/21 01:27:26;;;;;;;12.50;7.43;;;-1.90;99.10;;;;;;2082290;28;20182;-63
2021/11/21 01:28:26;;;;;;;10.43;6.10;;;-1.90;99.40;;;;;;2082398;28;20249;-63
2021/11/21 01:29:27;;;;;;;13.67;7.27;;;-1.90;99.60;;;;;;2082310;28;20763;-63
2021/11/21 01:30:30;;;;;;;10.53;6.30;;;-1.90;99.60;;;;;;2082173;28;20231;-63
2021/11/21 01:31:31;;;;;;;13.35;6.95;;;-1.90;99.80;;;;;;2082185;28;20557;-63
2021/11/21 01:32:32;;;;;;;12.23;6.80;;;-1.90;99.90;;;;;;2082420;28;20276;-63
2021/11/21 01:33:33;;;;;;;11.27;6.63;;;-1.90;99.90;;;;;;2082330;28;20431;-63
2021/11/21 01:34:34;;;;;;;13.65;7.38;;;-1.90;99.80;;;;;;2082397;28;20189;-63
2021/11/21 01:35:35;;;;;;;19.60;8.70;;;-1.90;99.70;;;;;;2082353;28;20557;-63
2021/11/21 01:36:36;;;;;;;13.80;8.13;;;-1.90;99.70;;;;;;2082402;28;20191;-63
2021/11/21 01:37:37;;;;;;;17.07;8.53;;;-1.90;99.80;;;;;;2082373;28;20339;-63
2021/11/21 01:38:40;;;;;;;14.88;6.95;;;-1.90;99.70;;;;;;2082454;28;20184;-63
2021/11/21 01:39:41;;;;;;;12.43;7.18;;;-1.90;99.60;;;;;;2082274;28;20192;-63
2021/11/21 01:40:41;;;;;;;14.50;8.13;;;-1.80;99.60;;;;;;2082233;28;20238;-63
2021/11/21 01:41:43;;;;;;;14.03;7.30;;;-1.80;99.50;;;;;;2082268;28;20212;-63
2021/11/21 01:42:46;;;;;;;12.98;7.50;;;-1.80;99.40;;;;;;2082342;28;20277;-63
2021/11/21 01:43:47;;;;;;;13.80;7.45;;;-1.80;99.20;;;;;;2081668;28;20273;-63
2021/11/21 01:44:48;;;;;;;16.20;8.03;;;-1.80;99.20;;;;;;2081732;28;20198;-63
2021/11/21 01:45:49;;;;;;;16.43;8.10;;;-1.80;99.10;;;;;;2082200;28;20274;-62
2021/11/21 01:46:51;;;;;;;13.02;7.20;;;-1.90;99.10;;;;;;2082325;28;20539;-63
2021/11/21 01:47:53;;;;;;;11.85;6.97;;;-1.90;99.20;;;;;;2082200;28;20699;-63
2021/11/21 01:48:53;;;;;;;12.57;7.38;;;-1.90;99.40;;;;;;2082402;28;20184;-62
2021/11/21 01:49:54;;;;;;;13.43;6.80;;;-1.90;99.40;;;;;;2081451;28;20230;-63
2021/11/21 01:50:58;;;;;;;12.40;7.00;;;-1.90;99.60;;;;;;2081366;28;20203;-62
2021/11/21 01:52:00;;;;;;;11.30;6.35;;;-2.00;99.70;;;;;;2082017;28;20196;-64
2021/11/21 01:53:01;;;;;;;11.23;6.28;;;-2.00;99.80;;;;;;2082165;28;20180;-63
2021/11/21 01:54:05;;;;;;;12.85;7.28;;;-2.00;99.90;;;;;;2081913;28;20179;-63
2021/11/21 01:55:07;;;;;;;11.75;7.25;;;-2.00;99.90;;;;;;2082245;28;20553;-63
2021/11/21 01:56:08;;;;;;;11.57;6.55;;;-2.00;99.90;;;;;;2082077;28;20200;-63
2021/11/21 01:57:11;;;;;;;11.23;6.20;;;-2.00;99.80;;;;;;2082234;28;20273;-63
2021/11/21 01:58:11;;;;;;;11.77;6.05;;;-1.90;99.90;;;;;;2082207;28;20172;-63
2021/11/21 01:59:13;;;;;;;11.97;6.50;;;-1.90;99.90;;;;;;2082330;28;20603;-63
2021/11/21 02:00:15;;;;;;;12.55;6.93;;;-1.90;99.90;;;;;;2082173;28;20191;-63
2021/11/21 02:01:16;;;;;;;12.95;6.22;;;-1.90;99.90;;;;;;2081845;28;20192;-63
2021/11/21 02:02:17;;;;;;;12.07;6.57;;;-1.90;99.80;;;;;;2082071;28;20203;-63
2021/11/21 02:03:19;;;;;;;12.65;6.75;;;-1.90;99.80;;;;;;2081636;28;20194;-63
2021/11/21 02:04:19;;;;;;;12.52;6.53;;;-1.90;99.70;;;;;;2081540;28;20243;-63
2021/11/21 02:05:20;;;;;;;10.67;6.50;;;-1.90;99.60;;;;;;2082068;28;20227;-63
2021/11/21 02:06:21;;;;;;;12.23;6.40;;;-1.90;99.40;;;;;;2082010;28;20546;-62
2021/11/21 02:07:22;;;;;;;11.93;5.90;;;-1.90;99.40;;;;;;2082066;28;20220;-63
2021/11/21 02:08:23;;;;;;;10.93;6.40;;;-1.90;99.40;;;;;;2082083;28;20564;-61
2021/11/21 02:09:23;;;;;;;11.00;5.90;;;-1.90;99.40;;;;;;2082107;28;20746;-62
2021/11/21 02:10:25;;;;;;;10.80;5.97;;;-1.90;99.50;;;;;;2081837;28;20180;-63
2021/11/21 02:11:26;;;;;;;10.82;5.78;;;-1.90;99.60;;;;;;2081324;28;20199;-63
2021/11/21 02:12:27;;;;;;;10.65;6.10;;;-1.90;99.70;;;;;;2081589;28;20183;-63
2021/11/21 02:13:28;;;;;;;10.50;5.70;;;-1.90;99.80;;;;;;2082077;28;20555;-63
2021/11/21 02:14:30;;;;;;;10.05;6.25;;;-1.90;99.70;;;;;;2081530;28;20186;-62
2021/11/21 02:15:32;;;;;;;7.90;5.05;;;-1.90;99.80;;;;;;2081444;28;20203;-62
2021/11/21 02:16:33;;;;;;;9.73;5.22;;;-1.90;99.90;;;;;;2082124;28;20182;-63
2021/11/21 02:17:34;;;;;;;10.27;5.40;;;-1.90;99.90;;;;;;2081202;28;20184;-63
2021/11/21 02:18:35;;;;;;;7.27;5.17;;;-1.90;99.80;;;;;;2081389;28;20238;-63
2021/11/21 02:19:35;;;;;;;8.13;4.97;;;-1.90;99.90;;;;;;2081837;28;20229;-60
2021/11/21 02:20:36;;;;;;;9.47;4.97;;;-1.90;99.80;;;;;;2081834;28;20172;-64
2021/11/21 02:21:36;;;;;;;9.60;4.60;;;-1.90;99.70;;;;;;2081825;28;20200;-63
2021/11/21 02:22:40;;;;;;;8.03;4.83;;;-1.90;99.70;;;;;;2082019;28;20660;-62
2021/11/21 02:23:42;;;;;;;8.43;4.88;;;-1.90;99.60;;;;;;2081790;28;20182;-63
2021/11/21 02:24:42;;;;;;;6.88;4.45;;;-1.90;99.50;;;;;;2081975;28;20210;-62
2021/11/21 02:25:43;;;;;;;6.83;4.23;;;-1.90;99.60;;;;;;2081861;28;20219;-63
2021/11/21 02:26:44;;;;;;;7.00;4.38;;;-1.90;99.60;;;;;;2081760;28;20667;-63
2021/11/21 02:27:45;;;;;;;9.20;4.70;;;-1.90;99.50;;;;;;2081980;28;20204;-62
2021/11/21 02:28:49;;;;;;;7.27;4.60;;;-1.90;99.50;;;;;;2081864;28;20265;-62
2021/11/21 02:29:49;;;;;;;9.43;4.45;;;-1.90;99.50;;;;;;2081855;28;20242;-62
2021/11/21 02:30:51;;;;;;;8.63;4.27;;;-1.90;99.50;;;;;;2081749;28;20594;-63
2021/11/21 02:31:52;;;;;;;7.25;4.30;;;-1.90;99.50;;;;;;2081931;28;20287;-63
2021/11/21 02:32:54;;;;;;;6.17;3.90;;;-1.90;99.60;;;;;;2081974;28;20652;-63
2021/11/21 02:33:55;;;;;;;6.05;3.78;;;-1.90;99.70;;;;;;2081804;28;20645;-63
2021/11/21 02:34:55;;;;;;;6.13;4.03;;;-1.90;99.70;;;;;;2081835;28;20270;-63
2021/11/21 02:36:00;;;;;;;5.53;3.33;;;-1.90;99.60;;;;;;2081966;28;20180;-63
2021/11/21 02:37:00;;;;;;;5.43;3.83;;;-1.90;99.70;;;;;;2081954;28;20261;-63
2021/11/21 02:38:01;;;;;;;6.83;4.03;;;-2.00;99.80;;;;;;2081807;28;20225;-63
2021/11/21 02:39:03;;;;;;;6.33;4.17;;;-2.00;99.90;;;;;;2081841;28;20186;-63
2021/11/21 02:40:04;;;;;;;6.97;4.38;;;-1.90;99.90;;;;;;2081713;28;20326;-63
2021/11/21 02:41:09;;;;;;;6.97;4.20;;;-1.90;99.90;;;;;;2081619;28;20207;-63
2021/11/21 02:42:26;;;;;;;5.78;3.53;;;-2.00;99.90;;;;;;2081180;28;20176;-63
2021/11/21 02:43:28;;;;;;;6.25;3.95;;;-1.90;99.90;;;;;;2081501;28;20193;-63
2021/11/21 02:44:29;;;;;;;5.38;3.63;;;-1.90;99.90;;;;;;2081703;28;20218;-63
2021/11/21 02:45:30;;;;;;;7.32;4.15;;;-1.90;99.90;;;;;;2081938;28;20194;-63
2021/11/21 02:46:31;;;;;;;5.47;3.90;;;-1.90;99.90;;;;;;2081735;28;20575;-63
2021/11/21 02:47:33;;;;;;;5.82;3.78;;;-1.90;99.90;;;;;;2081856;28;20202;-63
2021/11/21 02:48:35;;;;;;;5.80;3.50;;;-1.90;99.90;;;;;;2081807;28;20187;-63
2021/11/21 02:49:38;;;;;;;5.93;3.83;;;-2.00;99.90;;;;;;2081815;28;20187;-63
2021/11/21 02:50:39;;;;;;;6.18;3.85;;;-2.00;99.90;;;;;;2081533;28;20180;-63
2021/11/21 02:51:40;;;;;;;5.07;3.47;;;-2.00;99.90;;;;;;2081826;28;20211;-63
2021/11/21 02:52:41;;;;;;;6.13;3.87;;;-2.00;99.90;;;;;;2081754;28;20207;-62
2021/11/21 02:53:44;;;;;;;5.28;3.65;;;-1.90;99.90;;;;;;2081938;28;20180;-61
2021/11/21 02:54:51;;;;;;;6.63;4.03;;;-1.90;99.90;;;;;;2081842;28;20191;-63
2021/11/21 02:55:56;;;;;;;5.75;3.70;;;-1.90;99.90;;;;;;2081861;28;20268;-63
2021/11/21 02:56:56;;;;;;;5.05;3.33;;;-1.90;99.90;;;;;;2081729;28;20200;-63
2021/11/21 02:57:58;;;;;;;7.03;3.60;;;-1.90;99.90;;;;;;2083256;28;20273;-63
2021/11/21 02:58:59;;;;;;;5.75;3.60;;;-1.90;99.90;;;;;;2087706;28;20179;-63
2021/11/21 03:00:02;;;;;;;5.80;3.28;;;-1.90;99.90;;;;;;2089929;28;20670;-63
2021/11/21 03:01:28;;;;;;;4.60;3.40;;;-1.90;99.90;;;;;;2089536;28;20233;-63
2021/11/21 03:02:29;;;;;;;4.38;3.35;;;-1.90;99.90;;;;;;2090019;28;20199;-63
2021/11/21 03:03:30;;;;;;;4.57;3.10;;;-1.90;99.90;;;;;;2089841;28;20201;-63
2021/11/21 03:04:31;;;;;;;5.17;3.60;;;-1.90;99.90;;;;;;2090106;28;20305;-63
2021/11/21 03:05:36;;;;;;;5.60;3.77;;;-1.90;99.90;;;;;;2088715;28;20737;-63
2021/11/21 03:06:37;;;;;;;6.43;3.72;;;-2.00;99.90;;;;;;2088865;28;20186;-63
2021/11/21 03:07:37;;;;;;;6.37;3.53;;;-1.90;99.90;;;;;;2089810;28;20183;-64
2021/11/21 03:08:39;;;;;;;8.10;4.43;;;-1.90;99.90;;;;;;2089084;28;20187;-63
2021/11/21 03:09:40;;;;;;;5.50;3.85;;;-1.90;99.90;;;;;;2089105;28;20187;-62
2021/11/21 03:10:42;;;;;;;5.60;3.80;;;-1.90;99.90;;;;;;2089572;28;20211;-63
2021/11/21 03:11:43;;;;;;;4.78;3.50;;;-1.90;99.90;;;;;;2089546;28;20278;-62
2021/11/21 03:12:44;;;;;;;6.43;3.43;;;-1.90;99.90;;;;;;2089302;28;20178;-63
2021/11/21 03:13:45;;;;;;;5.10;3.28;;;-1.90;99.90;;;;;;2089146;28;20260;-63
2021/11/21 03:14:46;;;;;;;5.17;3.33;;;-2.00;99.80;;;;;;2087374;28;20187;-63
2021/11/21 03:15:47;;;;;;;5.90;3.50;;;-2.00;99.80;;;;;;2089741;28;20184;-62
2021/11/21 03:16:48;;;;;;;5.23;3.53;;;-2.00;99.80;;;;;;2089584;28;20203;-63
2021/11/21 03:17:49;;;;;;;4.40;3.35;;;-1.90;99.90;;;;;;2089587;28;20433;-62
2021/11/21 03:18:50;;;;;;;5.47;3.13;;;-1.90;99.90;;;;;;2089750;28;20194;-63
2021/11/21 03:19:51;;;;;;;6.40;3.77;;;-1.90;99.90;;;;;;2089782;28;20270;-63
2021/11/21 03:20:52;;;;;;;5.63;3.67;;;-2.00;99.80;;;;;;2089435;28;20183;-63
2021/11/21 03:21:53;;;;;;;5.23;3.20;;;-1.90;99.90;;;;;;2088805;28;20213;-62
2021/11/21 03:22:56;;;;;;;5.53;3.30;;;-1.90;99.90;;;;;;2083449;28;20215;-63
2021/11/21 03:23:56;;;;;;;6.28;3.30;;;-2.00;99.80;;;;;;2081513;28;20645;-63
2021/11/21 03:24:57;;;;;;;4.13;3.43;;;-2.00;99.60;;;;;;2081542;28;20180;-63
2021/11/21 03:25:58;;;;;;;5.53;3.20;;;-2.00;99.60;;;;;;2081576;28;20676;-63
2021/11/21 03:26:59;;;;;;;4.00;3.00;;;-2.00;99.60;;;;;;2081477;28;20652;-63
2021/11/21 03:27:59;;;;;;;5.90;3.27;;;-2.00;99.60;;;;;;2081462;28;20175;-62
2021/11/21 03:29:00;;;;;;;4.53;3.33;;;-2.00;99.70;;;;;;2081514;28;20181;-63
2021/11/21 03:30:04;;;;;;;4.87;3.50;;;-2.00;99.60;;;;;;2081573;28;20179;-63
2021/11/21 03:31:05;;;;;;;6.10;3.00;;;-2.00;99.60;;;;;;2081097;28;20190;-63
2021/11/21 03:32:06;;;;;;;5.57;3.00;;;-2.00;99.70;;;;;;2081526;28;20238;-63
2021/11/21 03:33:07;;;;;;;4.63;3.33;;;-2.10;99.70;;;;;;2080635;28;20359;-63
2021/11/21 03:34:08;;;;;;;5.40;3.30;;;-2.10;99.70;;;;;;2080911;28;20180;-63
2021/11/21 03:35:09;;;;;;;4.80;3.57;;;-2.10;99.60;;;;;;2081335;28;20172;-63
2021/11/21 03:36:10;;;;;;;4.18;3.00;;;-2.00;99.60;;;;;;2081457;28;20726;-63
2021/11/21 03:37:11;;;;;;;4.80;3.13;;;-2.10;99.40;;;;;;2081492;28;20318;-63
2021/11/21 03:38:12;;;;;;;4.70;3.35;;;-2.10;99.50;;;;;;2081496;28;20181;-61
2021/11/21 03:39:12;;;;;;;6.00;3.33;;;-2.10;99.40;;;;;;2081443;28;20283;-63
2021/11/21 03:40:16;;;;;;;8.30;3.27;;;-2.10;99.40;;;;;;2081607;28;20184;-63
2021/11/21 03:41:17;;;;;;;4.85;3.33;;;-2.00;99.50;;;;;;2081195;28;20645;-63
2021/11/21 03:42:18;;;;;;;5.23;3.20;;;-2.00;99.40;;;;;;2081566;28;20212;-60
2021/11/21 03:43:19;;;;;;;4.47;3.00;;;-2.10;99.30;;;;;;2081474;28;20194;-63
2021/11/21 03:44:19;;;;;;;5.20;2.80;;;-2.10;99.20;;;;;;2081373;28;20654;-61
2021/11/21 03:45:20;;;;;;;4.73;3.30;;;-2.10;99.00;;;;;;2081311;28;20194;-61
2021/11/21 03:46:23;;;;;;;5.20;2.90;;;-2.10;99.10;;;;;;2081333;28;20180;-62
2021/11/21 03:47:23;;;;;;;4.93;3.10;;;-2.10;99.10;;;;;;2081344;28;20499;-62
2021/11/21 03:48:24;;;;;;;3.50;2.67;;;-2.10;99.10;;;;;;2081324;28;20648;-62
2021/11/21 03:49:25;;;;;;;4.70;2.97;;;-2.10;99.10;;;;;;2081331;28;20203;-62
2021/11/21 03:50:27;;;;;;;6.23;3.00;;;-2.20;99.10;;;;;;2081150;28;20183;-61
2021/11/21 03:51:28;;;;;;;5.03;2.90;;;-2.20;99.60;;;;;;2081223;28;20706;-62
2021/11/21 03:52:28;;;;;;;3.63;2.97;;;-2.20;99.90;;;;;;2081259;28;20263;-61
2021/11/21 03:53:29;;;;;;;5.43;3.17;;;-2.20;99.90;;;;;;2081417;28;20649;-62
2021/11/21 03:54:30;;;;;;;4.60;2.97;;;-2.20;99.90;;;;;;2081217;28;20217;-62
2021/11/21 03:55:30;;;;;;;5.43;3.10;;;-2.20;99.90;;;;;;2080709;28;20198;-62
2021/11/21 03:56:32;;;;;;;4.10;3.10;;;-2.20;99.80;;;;;;2080551;28;20558;-63
2021/11/21 03:57:33;;;;;;;3.65;2.95;;;-2.30;99.90;;;;;;2081254;28;20229;-62
2021/11/21 03:58:33;;;;;;;5.00;3.50;;;-2.30;99.90;;;;;;2081265;28;20538;-63
2021/11/21 03:59:35;;;;;;;4.90;3.33;;;-2.30;99.90;;;;;;2081422;28;20571;-62
2021/11/21 04:00:36;;;;;;;4.80;3.30;;;-2.20;99.90;;;;;;2080933;28;20581;-63
2021/11/21 04:01:36;;;;;;;4.27;2.80;;;-2.30;99.90;;;;;;2081193;28;20295;-62
2021/11/21 04:02:37;;;;;;;6.03;3.07;;;-2.30;99.90;;;;;;2081155;28;20191;-62
2021/11/21 04:03:40;;;;;;;5.80;3.17;;;-2.30;99.90;;;;;;2081372;28;20182;-62
2021/11/21 04:04:40;;;;;;;4.85;2.90;;;-2.30;99.90;;;;;;2081346;28;20239;-62
2021/11/21 04:05:41;;;;;;;4.47;3.13;;;-2.30;99.90;;;;;;2081218;28;20759;-62
2021/11/21 04:06:42;;;;;;;7.07;3.40;;;-2.30;99.90;;;;;;2081138;28;20279;-62
2021/11/21 04:07:43;;;;;;;7.23;3.37;;;-2.30;99.90;;;;;;2081292;28;20179;-62
2021/11/21 04:08:44;;;;;;;6.43;3.77;;;-2.30;99.90;;;;;;2081359;28;20273;-63
2021/11/21 04:09:44;;;;;;;3.88;2.90;;;-2.30;99.90;;;;;;2081503;28;20261;-63
2021/11/21 04:10:45;;;;;;;4.57;3.17;;;-2.30;99.90;;;;;;2081031;28;20650;-62
2021/11/21 04:11:46;;;;;;;3.87;2.70;;;-2.30;99.90;;;;;;2080717;28;20202;-62
2021/11/21 04:12:47;;;;;;;4.20;3.10;;;-2.30;99.90;;;;;;2080615;28;20702;-63
2021/11/21 04:13:48;;;;;;;4.30;2.90;;;-2.20;99.90;;;;;;2081372;28;20306;-63
2021/11/21 04:14:48;;;;;;;4.67;3.40;;;-2.20;99.80;;;;;;2081283;28;20285;-63
2021/11/21 04:15:49;;;;;;;6.67;3.13;;;-2.20;99.80;;;;;;2081289;28;20186;-62
2021/11/21 04:16:50;;;;;;;4.40;3.27;;;-2.30;99.70;;;;;;2081337;28;20264;-62
2021/11/21 04:17:51;;;;;;;4.43;3.17;;;-2.30;99.80;;;;;;2083860;28;20715;-62
2021/11/21 04:18:51;;;;;;;4.70;3.50;;;-2.30;99.90;;;;;;2083938;28;20182;-63
2021/11/21 04:19:52;;;;;;;4.77;3.17;;;-2.30;99.90;;;;;;2083832;28;20192;-63
2021/11/21 04:20:53;;;;;;;3.97;3.00;;;-2.30;99.90;;;;;;2083787;28;20187;-63
2021/11/21 04:21:54;;;;;;;6.53;3.42;;;-2.30;99.90;;;;;;2083886;28;20252;-63
2021/11/21 04:22:55;;;;;;;5.40;3.33;;;-2.30;99.80;;;;;;2084268;28;20245;-62
2021/11/21 04:23:56;;;;;;;6.33;3.83;;;-2.30;99.70;;;;;;2083907;28;20178;-62
2021/11/21 04:24:57;;;;;;;6.68;3.10;;;-2.40;99.70;;;;;;2084106;28;20214;-62
2021/11/21 04:25:59;;;;;;;6.00;3.45;;;-2.40;99.60;;;;;;2083847;28;20262;-61
2021/11/21 04:27:00;;;;;;;5.72;3.50;;;-2.40;99.80;;;;;;2083873;28;20179;-63
2021/11/21 04:28:01;;;;;;;5.53;3.83;;;-2.40;99.70;;;;;;2083916;28;20574;-62
2021/11/21 04:29:02;;;;;;;3.77;3.10;;;-2.40;99.80;;;;;;2084013;28;20180;-63
2021/11/21 04:30:09;;;;;;;6.22;3.30;;;-2.40;99.90;;;;;;2083894;28;20180;-63
2021/11/21 04:31:10;;;;;;;3.63;2.78;;;-2.40;99.90;;;;;;2083710;28;20181;-63
2021/11/21 04:32:11;;;;;;;5.90;3.53;;;-2.40;99.90;;;;;;2083903;28;20697;-63
2021/11/21 04:33:11;;;;;;;4.57;2.73;;;-2.40;99.90;;;;;;2083941;28;20643;-63
2021/11/21 04:34:12;;;;;;;5.17;3.03;;;-2.40;99.90;;;;;;2083940;28;20211;-63
2021/11/21 04:35:16;;;;;;;5.13;3.00;;;-2.40;99.90;;;;;;2083930;28;20199;-63
2021/11/21 04:36:17;;;;;;;5.88;3.40;;;-2.40;99.90;;;;;;2083934;28;20173;-62
2021/11/21 04:37:18;;;;;;;6.97;3.20;;;-2.40;99.90;;;;;;2083786;28;20268;-63
2021/11/21 04:38:21;;;;;;;3.77;2.87;;;-2.40;99.90;;;;;;2084044;28;20723;-62
2021/11/21 04:39:23;;;;;;;4.47;2.95;;;-2.40;99.90;;;;;;2083979;28;20190;-62
2021/11/21 04:40:23;;;;;;;3.47;2.70;;;-2.40;99.90;;;;;;2083674;28;20245;-62
2021/11/21 04:41:24;;;;;;;3.50;2.93;;;-2.40;99.90;;;;;;2083750;28;20724;-61
2021/11/21 04:42:25;;;;;;;5.90;3.07;;;-2.40;99.90;;;;;;2083218;28;20180;-62
2021/11/21 04:43:26;;;;;;;4.77;3.07;;;-2.50;99.90;;;;;;2083189;28;20182;-62
2021/11/21 04:44:27;;;;;;;4.85;2.90;;;-2.50;99.90;;;;;;2083777;28;20737;-62
2021/11/21 04:45:28;;;;;;;4.23;2.70;;;-2.50;99.90;;;;;;2083691;28;20274;-62
2021/11/21 04:46:29;;;;;;;3.53;2.80;;;-2.40;99.90;;;;;;2083711;28;20175;-61
2021/11/21 04:47:30;;;;;;;5.70;2.78;;;-2.40;99.90;;;;;;2083919;28;20179;-62
2021/11/21 04:48:31;;;;;;;4.30;3.20;;;-2.40;99.90;;;;;;2083718;28;20665;-62
2021/11/21 04:49:32;;;;;;;3.90;2.70;;;-2.40;99.90;;;;;;2083692;28;20178;-62
2021/11/21 04:50:34;;;;;;;5.20;3.40;;;-2.50;99.90;;;;;;2088917;28;20272;-62
2021/11/21 04:51:34;;;;;;;4.10;3.00;;;-2.40;99.90;;;;;;2092047;28;20199;-60
2021/11/21 04:52:35;;;;;;;3.27;2.50;;;-2.40;99.90;;;;;;2092023;28;20321;-62
2021/11/21 04:53:36;;;;;;;4.83;2.97;;;-2.50;99.90;;;;;;2091998;28;20201;-62
2021/11/21 04:54:37;;;;;;;7.87;3.47;;;-2.40;99.90;;;;;;2091999;28;20554;-60
2021/11/21 04:55:38;;;;;;;5.40;3.42;;;-2.40;99.90;;;;;;2092118;28;20185;-61
2021/11/21 04:56:39;;;;;;;5.43;3.27;;;-2.40;99.90;;;;;;2092134;28;20545;-62
2021/11/21 04:57:41;;;;;;;4.13;2.97;;;-2.40;99.90;;;;;;2092061;28;20205;-61
2021/11/21 04:58:42;;;;;;;4.63;3.10;;;-2.40;99.90;;;;;;2091297;28;20194;-62
2021/11/21 04:59:43;;;;;;;4.33;3.13;;;-2.40;99.90;;;;;;2091612;28;20178;-62
2021/11/21 05:00:45;;;;;;;4.85;3.00;;;-2.40;99.90;;;;;;2091801;28;20181;-62
2021/11/21 05:01:45;;;;;;;3.60;2.92;;;-2.40;99.90;;;;;;2091862;28;20332;-62
2021/11/21 05:02:49;;;;;;;5.93;3.53;;;-2.40;99.90;;;;;;2092055;28;20583;-62
2021/11/21 05:03:50;;;;;;;5.28;2.92;;;-2.40;99.90;;;;;;2091997;28;20178;-62
2021/11/21 05:04:50;;;;;;;6.83;2.93;;;-2.30;99.90;;;;;;2091994;28;20187;-62
2021/11/21 05:05:51;;;;;;;4.57;3.10;;;-2.40;99.90;;;;;;2091951;28;20698;-62
2021/11/21 05:06:52;;;;;;;4.33;2.97;;;-2.40;99.90;;;;;;2091983;28;20232;-61
2021/11/21 05:07:53;;;;;;;3.87;2.73;;;-2.40;99.90;;;;;;2092025;28;20222;-62
2021/11/21 05:08:54;;;;;;;4.90;3.00;;;-2.40;99.80;;;;;;2092220;28;20178;-62
2021/11/21 05:09:55;;;;;;;6.03;3.00;;;-2.40;99.70;;;;;;2091963;28;20185;-62
2021/11/21 05:10:55;;;;;;;4.63;2.57;;;-2.30;99.70;;;;;;2091671;28;20549;-62
2021/11/21 05:11:56;;;;;;;3.73;2.67;;;-2.40;99.70;;;;;;2091783;28;20201;-62
2021/11/21 05:12:57;;;;;;;5.10;2.93;;;-2.40;99.60;;;;;;2091935;28;20170;-62
2021/11/21 05:14:01;;;;;;;4.27;3.00;;;-2.40;99.60;;;;;;2099361;28;20188;-62
2021/11/21 05:15:03;;;;;;;4.55;2.80;;;-2.40;99.70;;;;;;2099116;28;20228;-62
2021/11/21 05:16:04;;;;;;;3.03;2.50;;;-2.30;99.70;;;;;;2091877;28;20311;-62
2021/11/21 05:17:04;;;;;;;3.40;2.90;;;-2.30;99.60;;;;;;2091839;28;20205;-62
2021/11/21 05:18:05;;;;;;;4.43;3.13;;;-2.30;99.60;;;;;;2091742;28;20647;-62
2021/11/21 05:19:06;;;;;;;4.63;2.70;;;-2.40;99.40;;;;;;2092271;28;20713;-62